Fort Mohave, Arizona
Current Conditions -  °F | °C
As of 3:35 AM on Saturday 22 Nov 2014 (Local Time) from KIFP Reporting Station
Clear Clear  
Wind Chill: 50°   Ceiling: Unl
Heat Index: 50°   Visibility: 10mi
Dew Point: 23°   Wind: 0mph
Humidity: 35%   Direction: NA
Pressure: 30.05"   Gusts: NA
Location:  35.01°N, 114.58°W
Report Text: KIFP 221035Z AUTO 00000KT 10SM CLR 10/M05 A3005 RMK AO2 PWINO
Loading
Personal Weather Stations






























Interactive Weather Map New forecast layout! Learn more

10-Day Weather Forecast

Advertisements
Track Severe Weather on mobile